sensor_id;sensor_type;location;lat;lon;timestamp;P1;durP1;ratioP1;P2;durP2;ratioP2
19810;SDS011;10065;49.632;8.346;2023-07-22T04:40:35;5.68;;;3.33;;
19810;SDS011;10065;49.632;8.346;2023-07-22T04:43:56;7.40;;;3.10;;
19810;SDS011;10065;49.632;8.346;2023-07-22T04:50:45;9.83;;;3.23;;
19810;SDS011;10065;49.632;8.346;2023-07-22T04:54:19;5.77;;;3.20;;
19810;SDS011;10065;49.632;8.346;2023-07-22T04:57:37;5.90;;;3.60;;
19810;SDS011;10065;49.632;8.346;2023-07-22T05:02:05;5.93;;;3.50;;
19810;SDS011;10065;49.632;8.346;2023-07-22T05:04:44;5.97;;;3.60;;
19810;SDS011;10065;49.632;8.346;2023-07-22T05:07:12;7.87;;;3.30;;
19810;SDS011;10065;49.632;8.346;2023-07-22T05:10:12;6.57;;;3.43;;
19810;SDS011;10065;49.632;8.346;2023-07-22T05:13:31;5.23;;;3.20;;
19810;SDS011;10065;49.632;8.346;2023-07-22T05:16:17;9.00;;;3.53;;
19810;SDS011;10065;49.632;8.346;2023-07-22T05:19:16;10.23;;;4.00;;
19810;SDS011;10065;49.632;8.346;2023-07-22T05:22:12;5.03;;;3.23;;
19810;SDS011;10065;49.632;8.346;2023-07-22T05:28:23;6.77;;;3.20;;
19810;SDS011;10065;49.632;8.346;2023-07-22T05:30:59;4.77;;;3.17;;
19810;SDS011;10065;49.632;8.346;2023-07-22T05:33:47;7.03;;;3.90;;
19810;SDS011;10065;49.632;8.346;2023-07-22T05:36:17;5.27;;;3.07;;
19810;SDS011;10065;49.632;8.346;2023-07-22T05:38:51;4.33;;;3.00;;
19810;SDS011;10065;49.632;8.346;2023-07-22T05:41:41;5.70;;;3.67;;
19810;SDS011;10065;49.632;8.346;2023-07-22T05:44:28;6.27;;;3.43;;
19810;SDS011;10065;49.632;8.346;2023-07-22T05:47:17;4.70;;;3.00;;
19810;SDS011;10065;49.632;8.346;2023-07-22T05:50:19;5.80;;;2.93;;
19810;SDS011;10065;49.632;8.346;2023-07-22T05:53:20;7.73;;;3.43;;
19810;SDS011;10065;49.632;8.346;2023-07-22T05:55:51;4.77;;;3.13;;
19810;SDS011;10065;49.632;8.346;2023-07-22T05:58:29;7.87;;;3.50;;
19810;SDS011;10065;49.632;8.346;2023-07-22T06:04:40;5.27;;;3.03;;
19810;SDS011;10065;49.632;8.346;2023-07-22T06:07:22;5.20;;;3.30;;
19810;SDS011;10065;49.632;8.346;2023-07-22T06:13:20;8.17;;;3.57;;
19810;SDS011;10065;49.632;8.346;2023-07-22T06:16:17;5.80;;;3.43;;
19810;SDS011;10065;49.632;8.346;2023-07-22T06:18:52;7.03;;;3.90;;
19810;SDS011;10065;49.632;8.346;2023-07-22T06:24:44;5.93;;;4.00;;
19810;SDS011;10065;49.632;8.346;2023-07-22T06:27:13;6.03;;;3.73;;
19810;SDS011;10065;49.632;8.346;2023-07-22T06:29:50;5.20;;;3.70;;
19810;SDS011;10065;49.632;8.346;2023-07-22T06:32:19;11.70;;;3.60;;
19810;SDS011;10065;49.632;8.346;2023-07-22T06:34:48;5.97;;;3.80;;
19810;SDS011;10065;49.632;8.346;2023-07-22T06:37:33;5.27;;;3.80;;
19810;SDS011;10065;49.632;8.346;2023-07-22T06:40:02;7.27;;;4.17;;
19810;SDS011;10065;49.632;8.346;2023-07-22T06:42:30;13.07;;;4.67;;
19810;SDS011;10065;49.632;8.346;2023-07-22T06:44:59;7.27;;;4.57;;
19810;SDS011;10065;49.632;8.346;2023-07-22T06:47:30;7.33;;;4.37;;
19810;SDS011;10065;49.632;8.346;2023-07-22T06:50:13;7.97;;;5.13;;
19810;SDS011;10065;49.632;8.346;2023-07-22T06:52:51;6.97;;;4.93;;
19810;SDS011;10065;49.632;8.346;2023-07-22T06:55:19;8.20;;;5.03;;
19810;SDS011;10065;49.632;8.346;2023-07-22T06:57:59;8.20;;;5.17;;
19810;SDS011;10065;49.632;8.346;2023-07-22T07:03:19;7.90;;;5.30;;
19810;SDS011;10065;49.632;8.346;2023-07-22T07:06:06;6.43;;;5.10;;
19810;SDS011;10065;49.632;8.346;2023-07-22T07:11:51;8.87;;;4.80;;
19810;SDS011;10065;49.632;8.346;2023-07-22T07:16:34;9.43;;;5.97;;
19810;SDS011;10065;49.632;8.346;2023-07-22T07:17:57;12.63;;;5.63;;
19810;SDS011;10065;49.632;8.346;2023-07-22T07:20:35;12.77;;;5.23;;
19810;SDS011;10065;49.632;8.346;2023-07-22T07:23:10;7.30;;;5.37;;
19810;SDS011;10065;49.632;8.346;2023-07-22T07:26:22;7.77;;;4.63;;
19810;SDS011;10065;49.632;8.346;2023-07-22T07:28:56;9.30;;;5.87;;
19810;SDS011;10065;49.632;8.346;2023-07-22T07:31:45;11.20;;;6.00;;
19810;SDS011;10065;49.632;8.346;2023-07-22T07:34:36;13.23;;;6.00;;
19810;SDS011;10065;49.632;8.346;2023-07-22T07:37:19;10.03;;;5.63;;
19810;SDS011;10065;49.632;8.346;2023-07-22T07:40:28;7.43;;;5.13;;
19810;SDS011;10065;49.632;8.346;2023-07-22T07:43:03;9.57;;;5.50;;
19810;SDS011;10065;49.632;8.346;2023-07-22T07:45:40;13.53;;;5.97;;
19810;SDS011;10065;49.632;8.346;2023-07-22T07:48:24;9.13;;;5.83;;
19810;SDS011;10065;49.632;8.346;2023-07-22T07:50:53;9.60;;;6.57;;
19810;SDS011;10065;49.632;8.346;2023-07-22T07:53:34;8.13;;;6.27;;
19810;SDS011;10065;49.632;8.346;2023-07-22T07:56:02;8.43;;;4.87;;
19810;SDS011;10065;49.632;8.346;2023-07-22T07:58:34;9.00;;;4.00;;
19810;SDS011;10065;49.632;8.346;2023-07-22T08:01:07;10.03;;;4.83;;
19810;SDS011;10065;49.632;8.346;2023-07-22T08:03:42;6.97;;;4.53;;
19810;SDS011;10065;49.632;8.346;2023-07-22T08:06:17;8.33;;;4.70;;
19810;SDS011;10065;49.632;8.346;2023-07-22T08:08:48;6.47;;;4.40;;
19810;SDS011;10065;49.632;8.346;2023-07-22T08:11:17;8.73;;;4.50;;
19810;SDS011;10065;49.632;8.346;2023-07-22T08:14:06;9.63;;;4.37;;
19810;SDS011;10065;49.632;8.346;2023-07-22T08:16:37;7.70;;;4.67;;
19810;SDS011;10065;49.632;8.346;2023-07-22T08:19:31;10.13;;;4.73;;
19810;SDS011;10065;49.632;8.346;2023-07-22T08:22:01;7.07;;;4.27;;
19810;SDS011;10065;49.632;8.346;2023-07-22T08:24:36;6.27;;;4.00;;
19810;SDS011;10065;49.632;8.346;2023-07-22T08:30:18;6.43;;;4.10;;
19810;SDS011;10065;49.632;8.346;2023-07-22T08:32:48;6.83;;;3.50;;
19810;SDS011;10065;49.632;8.346;2023-07-22T08:35:16;6.40;;;3.95;;
19810;SDS011;10065;49.632;8.346;2023-07-22T08:37:45;7.05;;;4.38;;
19810;SDS011;10065;49.632;8.346;2023-07-22T08:40:18;6.85;;;4.03;;
19810;SDS011;10065;49.632;8.346;2023-07-22T08:42:49;10.25;;;5.55;;
19810;SDS011;10065;49.632;8.346;2023-07-22T08:45:24;16.35;;;6.65;;
19810;SDS011;10065;49.632;8.346;2023-07-22T08:48:05;14.55;;;7.35;;
19810;SDS011;10065;49.632;8.346;2023-07-22T08:50:49;9.88;;;4.80;;
19810;SDS011;10065;49.632;8.346;2023-07-22T08:53:36;6.03;;;4.20;;
19810;SDS011;10065;49.632;8.346;2023-07-22T08:56:11;6.57;;;4.25;;
19810;SDS011;10065;49.632;8.346;2023-07-22T08:58:44;5.90;;;3.58;;
19810;SDS011;10065;49.632;8.346;2023-07-22T09:01:23;10.00;;;4.28;;
19810;SDS011;10065;49.632;8.346;2023-07-22T09:04:12;8.38;;;3.47;;
19810;SDS011;10065;49.632;8.346;2023-07-22T09:06:41;7.60;;;3.80;;
19810;SDS011;10065;49.632;8.346;2023-07-22T09:09:09;7.95;;;3.53;;
19810;SDS011;10065;49.632;8.346;2023-07-22T09:11:42;7.60;;;3.83;;
19810;SDS011;10065;49.632;8.346;2023-07-22T09:14:20;6.43;;;4.35;;
19810;SDS011;10065;49.632;8.346;2023-07-22T09:17:04;15.70;;;9.77;;
19810;SDS011;10065;49.632;8.346;2023-07-22T09:19:42;6.93;;;3.95;;
19810;SDS011;10065;49.632;8.346;2023-07-22T09:22:24;6.78;;;2.67;;
19810;SDS011;10065;49.632;8.346;2023-07-22T09:25:19;9.27;;;3.38;;
19810;SDS011;10065;49.632;8.346;2023-07-22T09:28:08;6.43;;;3.05;;
19810;SDS011;10065;49.632;8.346;2023-07-22T09:31:00;5.78;;;3.30;;
19810;SDS011;10065;49.632;8.346;2023-07-22T09:33:47;4.78;;;2.80;;
19810;SDS011;10065;49.632;8.346;2023-07-22T09:36:27;10.93;;;3.65;;
19810;SDS011;10065;49.632;8.346;2023-07-22T09:39:04;6.15;;;2.42;;
19810;SDS011;10065;49.632;8.346;2023-07-22T09:41:41;5.63;;;2.85;;
19810;SDS011;10065;49.632;8.346;2023-07-22T09:44:29;7.47;;;4.53;;
19810;SDS011;10065;49.632;8.346;2023-07-22T09:47:05;5.53;;;2.50;;
19810;SDS011;10065;49.632;8.346;2023-07-22T09:50:08;5.95;;;3.13;;
19810;SDS011;10065;49.632;8.346;2023-07-22T09:52:55;5.75;;;3.17;;
19810;SDS011;10065;49.632;8.346;2023-07-22T09:55:26;6.50;;;2.85;;
19810;SDS011;10065;49.632;8.346;2023-07-22T09:58:14;4.75;;;3.08;;
19810;SDS011;10065;49.632;8.346;2023-07-22T10:03:43;5.32;;;2.50;;
19810;SDS011;10065;49.632;8.346;2023-07-22T10:06:18;5.43;;;2.72;;
19810;SDS011;10065;49.632;8.346;2023-07-22T10:08:58;9.05;;;2.97;;
19810;SDS011;10065;49.632;8.346;2023-07-22T10:11:35;8.77;;;5.45;;
19810;SDS011;10065;49.632;8.346;2023-07-22T10:14:03;9.98;;;4.70;;
19810;SDS011;10065;49.632;8.346;2023-07-22T10:16:39;8.70;;;3.85;;
19810;SDS011;10065;49.632;8.346;2023-07-22T10:19:53;8.55;;;4.30;;
19810;SDS011;10065;49.632;8.346;2023-07-22T10:22:22;8.13;;;3.20;;
19810;SDS011;10065;49.632;8.346;2023-07-22T10:25:00;7.00;;;3.05;;
19810;SDS011;10065;49.632;8.346;2023-07-22T10:27:40;6.55;;;3.45;;
19810;SDS011;10065;49.632;8.346;2023-07-22T10:30:11;5.63;;;2.78;;
19810;SDS011;10065;49.632;8.346;2023-07-22T10:33:21;6.28;;;4.00;;
19810;SDS011;10065;49.632;8.346;2023-07-22T10:36:03;6.95;;;2.75;;
19810;SDS011;10065;49.632;8.346;2023-07-22T10:38:42;6.82;;;3.30;;
19810;SDS011;10065;49.632;8.346;2023-07-22T10:41:42;7.50;;;4.40;;
19810;SDS011;10065;49.632;8.346;2023-07-22T10:44:45;8.65;;;6.00;;
19810;SDS011;10065;49.632;8.346;2023-07-22T10:47:31;6.82;;;3.28;;
19810;SDS011;10065;49.632;8.346;2023-07-22T10:57:49;8.80;;;2.55;;
19810;SDS011;10065;49.632;8.346;2023-07-22T11:00:28;6.57;;;2.60;;
19810;SDS011;10065;49.632;8.346;2023-07-22T11:03:48;4.18;;;2.40;;
19810;SDS011;10065;49.632;8.346;2023-07-22T11:06:10;6.30;;;2.80;;
19810;SDS011;10065;49.632;8.346;2023-07-22T11:09:34;4.68;;;3.00;;
19810;SDS011;10065;49.632;8.346;2023-07-22T11:12:19;5.07;;;2.60;;
19810;SDS011;10065;49.632;8.346;2023-07-22T11:15:10;5.82;;;2.80;;
19810;SDS011;10065;49.632;8.346;2023-07-22T11:21:34;5.40;;;2.67;;
19810;SDS011;10065;49.632;8.346;2023-07-22T11:24:07;5.10;;;3.15;;
19810;SDS011;10065;49.632;8.346;2023-07-22T11:27:22;4.32;;;2.72;;
19810;SDS011;10065;49.632;8.346;2023-07-22T11:30:04;6.47;;;3.03;;
19810;SDS011;10065;49.632;8.346;2023-07-22T11:32:44;6.47;;;2.65;;
19810;SDS011;10065;49.632;8.346;2023-07-22T11:35:42;7.90;;;3.10;;
19810;SDS011;10065;49.632;8.346;2023-07-22T11:38:13;5.93;;;3.00;;
19810;SDS011;10065;49.632;8.346;2023-07-22T11:40:41;4.70;;;2.75;;
19810;SDS011;10065;49.632;8.346;2023-07-22T11:43:09;4.95;;;2.65;;
19810;SDS011;10065;49.632;8.346;2023-07-22T11:45:43;5.85;;;2.70;;
19810;SDS011;10065;49.632;8.346;2023-07-22T11:48:28;5.88;;;2.65;;
19810;SDS011;10065;49.632;8.346;2023-07-22T11:51:12;7.57;;;3.40;;
19810;SDS011;10065;49.632;8.346;2023-07-22T11:54:04;4.80;;;2.83;;
19810;SDS011;10065;49.632;8.346;2023-07-22T11:56:39;9.18;;;2.83;;
19810;SDS011;10065;49.632;8.346;2023-07-22T11:59:32;6.95;;;3.22;;
19810;SDS011;10065;49.632;8.346;2023-07-22T12:02:05;6.45;;;3.17;;
19810;SDS011;10065;49.632;8.346;2023-07-22T12:11:18;6.15;;;3.35;;
19810;SDS011;10065;49.632;8.346;2023-07-22T12:14:04;10.85;;;3.50;;
19810;SDS011;10065;49.632;8.346;2023-07-22T12:17:07;7.13;;;3.05;;
19810;SDS011;10065;49.632;8.346;2023-07-22T12:19:50;4.40;;;2.55;;
19810;SDS011;10065;49.632;8.346;2023-07-22T12:22:49;5.25;;;2.47;;
19810;SDS011;10065;49.632;8.346;2023-07-22T12:26:04;4.30;;;2.58;;
19810;SDS011;10065;49.632;8.346;2023-07-22T12:28:33;5.55;;;2.55;;
19810;SDS011;10065;49.632;8.346;2023-07-22T12:31:11;5.47;;;2.15;;
19810;SDS011;10065;49.632;8.346;2023-07-22T12:33:49;5.38;;;2.30;;
19810;SDS011;10065;49.632;8.346;2023-07-22T12:36:26;7.28;;;2.92;;
19810;SDS011;10065;49.632;8.346;2023-07-22T12:39:07;6.00;;;2.95;;
19810;SDS011;10065;49.632;8.346;2023-07-22T12:41:38;6.00;;;2.47;;
19810;SDS011;10065;49.632;8.346;2023-07-22T12:44:11;6.20;;;2.40;;
19810;SDS011;10065;49.632;8.346;2023-07-22T12:46:49;5.32;;;2.70;;
19810;SDS011;10065;49.632;8.346;2023-07-22T12:53:27;4.35;;;2.40;;
19810;SDS011;10065;49.632;8.346;2023-07-22T12:56:14;4.60;;;2.35;;
19810;SDS011;10065;49.632;8.346;2023-07-22T12:59:08;5.03;;;2.78;;
19810;SDS011;10065;49.632;8.346;2023-07-22T13:03:12;6.35;;;2.38;;
19810;SDS011;10065;49.632;8.346;2023-07-22T13:04:44;5.40;;;3.10;;
19810;SDS011;10065;49.632;8.346;2023-07-22T13:07:18;6.97;;;3.35;;
19810;SDS011;10065;49.632;8.346;2023-07-22T13:10:13;9.32;;;3.83;;
19810;SDS011;10065;49.632;8.346;2023-07-22T13:12:45;9.27;;;4.50;;
19810;SDS011;10065;49.632;8.346;2023-07-22T13:15:25;7.45;;;4.13;;
19810;SDS011;10065;49.632;8.346;2023-07-22T13:17:53;6.95;;;3.13;;
19810;SDS011;10065;49.632;8.346;2023-07-22T13:24:08;5.50;;;3.50;;
19810;SDS011;10065;49.632;8.346;2023-07-22T13:26:40;5.80;;;2.92;;
19810;SDS011;10065;49.632;8.346;2023-07-22T13:29:11;11.02;;;2.88;;
19810;SDS011;10065;49.632;8.346;2023-07-22T13:31:41;9.63;;;3.42;;
19810;SDS011;10065;49.632;8.346;2023-07-22T13:34:12;7.22;;;2.63;;
19810;SDS011;10065;49.632;8.346;2023-07-22T13:36:46;7.97;;;2.97;;
19810;SDS011;10065;49.632;8.346;2023-07-22T13:39:18;5.22;;;2.75;;
19810;SDS011;10065;49.632;8.346;2023-07-22T13:41:49;6.38;;;3.33;;
19810;SDS011;10065;49.632;8.346;2023-07-22T13:44:20;5.20;;;2.83;;
19810;SDS011;10065;49.632;8.346;2023-07-22T13:46:49;7.13;;;3.20;;
19810;SDS011;10065;49.632;8.346;2023-07-22T13:49:22;8.13;;;2.95;;
19810;SDS011;10065;49.632;8.346;2023-07-22T13:52:01;5.60;;;3.03;;
19810;SDS011;10065;49.632;8.346;2023-07-22T13:54:32;4.63;;;2.92;;
19810;SDS011;10065;49.632;8.346;2023-07-22T13:57:08;6.00;;;2.92;;
19810;SDS011;10065;49.632;8.346;2023-07-22T13:59:37;6.88;;;3.03;;
19810;SDS011;10065;49.632;8.346;2023-07-22T14:02:08;7.25;;;3.15;;
19810;SDS011;10065;49.632;8.346;2023-07-22T14:04:40;6.13;;;3.33;;
19810;SDS011;10065;49.632;8.346;2023-07-22T14:07:11;6.95;;;3.28;;
19810;SDS011;10065;49.632;8.346;2023-07-22T14:09:45;5.43;;;3.17;;
19810;SDS011;10065;49.632;8.346;2023-07-22T14:12:13;6.43;;;3.05;;
19810;SDS011;10065;49.632;8.346;2023-07-22T14:14:45;6.03;;;3.03;;
19810;SDS011;10065;49.632;8.346;2023-07-22T14:17:17;7.25;;;3.38;;
19810;SDS011;10065;49.632;8.346;2023-07-22T14:19:49;7.93;;;3.40;;
19810;SDS011;10065;49.632;8.346;2023-07-22T14:22:22;11.68;;;3.00;;
19810;SDS011;10065;49.632;8.346;2023-07-22T14:24:52;6.38;;;3.10;;
19810;SDS011;10065;49.632;8.346;2023-07-22T14:27:21;4.95;;;3.00;;
19810;SDS011;10065;49.632;8.346;2023-07-22T14:29:52;7.57;;;3.83;;
19810;SDS011;10065;49.632;8.346;2023-07-22T14:32:21;6.32;;;3.50;;
19810;SDS011;10065;49.632;8.346;2023-07-22T14:34:52;5.90;;;3.30;;
19810;SDS011;10065;49.632;8.346;2023-07-22T14:37:26;5.75;;;2.75;;
19810;SDS011;10065;49.632;8.346;2023-07-22T14:40:04;4.82;;;3.38;;
19810;SDS011;10065;49.632;8.346;2023-07-22T14:42:36;7.03;;;3.38;;
19810;SDS011;10065;49.632;8.346;2023-07-22T14:45:08;10.38;;;3.65;;
19810;SDS011;10065;49.632;8.346;2023-07-22T14:47:37;5.90;;;3.20;;
19810;SDS011;10065;49.632;8.346;2023-07-22T14:50:05;5.57;;;3.20;;
19810;SDS011;10065;49.632;8.346;2023-07-22T14:52:34;7.57;;;3.20;;
19810;SDS011;10065;49.632;8.346;2023-07-22T14:55:05;6.60;;;4.22;;
19810;SDS011;10065;49.632;8.346;2023-07-22T14:57:34;5.28;;;3.70;;
19810;SDS011;10065;49.632;8.346;2023-07-22T15:00:02;6.70;;;3.75;;
19810;SDS011;10065;49.632;8.346;2023-07-22T15:02:32;10.63;;;4.35;;
19810;SDS011;10065;49.632;8.346;2023-07-22T15:05:04;6.43;;;3.35;;
19810;SDS011;10065;49.632;8.346;2023-07-22T15:07:40;12.70;;;3.92;;
19810;SDS011;10065;49.632;8.346;2023-07-22T15:10:12;6.82;;;3.63;;
19810;SDS011;10065;49.632;8.346;2023-07-22T15:12:43;6.65;;;3.33;;
19810;SDS011;10065;49.632;8.346;2023-07-22T15:15:12;12.07;;;5.07;;
19810;SDS011;10065;49.632;8.346;2023-07-22T15:17:42;7.97;;;3.55;;
19810;SDS011;10065;49.632;8.346;2023-07-22T15:20:12;6.65;;;3.47;;
19810;SDS011;10065;49.632;8.346;2023-07-22T15:22:43;4.97;;;3.65;;
19810;SDS011;10065;49.632;8.346;2023-07-22T15:25:12;7.45;;;3.50;;
19810;SDS011;10065;49.632;8.346;2023-07-22T15:27:44;15.07;;;4.03;;
19810;SDS011;10065;49.632;8.346;2023-07-22T15:30:15;10.45;;;3.70;;
19810;SDS011;10065;49.632;8.346;2023-07-22T15:32:47;5.97;;;3.67;;
19810;SDS011;10065;49.632;8.346;2023-07-22T15:35:20;6.63;;;3.38;;
19810;SDS011;10065;49.632;8.346;2023-07-22T15:37:53;8.85;;;3.90;;
19810;SDS011;10065;49.632;8.346;2023-07-22T15:40:23;7.30;;;3.28;;
19810;SDS011;10065;49.632;8.346;2023-07-22T15:42:51;5.72;;;3.38;;
19810;SDS011;10065;49.632;8.346;2023-07-22T15:45:21;9.85;;;3.28;;
19810;SDS011;10065;49.632;8.346;2023-07-22T15:47:53;6.78;;;4.20;;
19810;SDS011;10065;49.632;8.346;2023-07-22T15:50:21;5.05;;;2.80;;
19810;SDS011;10065;49.632;8.346;2023-07-22T15:52:58;9.45;;;4.03;;
19810;SDS011;10065;49.632;8.346;2023-07-22T15:55:30;10.10;;;4.03;;
19810;SDS011;10065;49.632;8.346;2023-07-22T15:58:06;10.48;;;4.13;;
19810;SDS011;10065;49.632;8.346;2023-07-22T16:00:38;10.75;;;3.65;;
19810;SDS011;10065;49.632;8.346;2023-07-22T16:03:07;7.43;;;3.58;;
19810;SDS011;10065;49.632;8.346;2023-07-22T16:05:40;7.95;;;3.70;;
19810;SDS011;10065;49.632;8.346;2023-07-22T16:08:12;7.50;;;3.58;;
19810;SDS011;10065;49.632;8.346;2023-07-22T16:10:43;7.95;;;4.22;;
19810;SDS011;10065;49.632;8.346;2023-07-22T16:16:08;10.65;;;5.45;;
19810;SDS011;10065;49.632;8.346;2023-07-22T16:18:42;8.95;;;4.50;;
19810;SDS011;10065;49.632;8.346;2023-07-22T16:21:13;10.45;;;3.80;;
19810;SDS011;10065;49.632;8.346;2023-07-22T16:23:42;7.82;;;3.55;;
19810;SDS011;10065;49.632;8.346;2023-07-22T16:26:21;6.65;;;3.58;;
19810;SDS011;10065;49.632;8.346;2023-07-22T16:28:56;12.23;;;3.22;;
19810;SDS011;10065;49.632;8.346;2023-07-22T16:31:29;6.35;;;3.58;;
19810;SDS011;10065;49.632;8.346;2023-07-22T16:34:13;9.73;;;3.45;;
19810;SDS011;10065;49.632;8.346;2023-07-22T16:36:45;7.78;;;3.83;;
19810;SDS011;10065;49.632;8.346;2023-07-22T16:39:14;9.45;;;3.95;;
19810;SDS011;10065;49.632;8.346;2023-07-22T16:41:43;8.60;;;3.85;;
19810;SDS011;10065;49.632;8.346;2023-07-22T16:44:14;10.70;;;4.10;;
19810;SDS011;10065;49.632;8.346;2023-07-22T16:46:43;10.27;;;3.80;;
19810;SDS011;10065;49.632;8.346;2023-07-22T16:49:14;6.20;;;3.22;;
19810;SDS011;10065;49.632;8.346;2023-07-22T16:51:43;5.55;;;3.05;;
19810;SDS011;10065;49.632;8.346;2023-07-22T16:54:14;6.93;;;4.10;;
19810;SDS011;10065;49.632;8.346;2023-07-22T16:56:47;7.25;;;3.58;;
19810;SDS011;10065;49.632;8.346;2023-07-22T16:59:19;9.27;;;3.75;;
19810;SDS011;10065;49.632;8.346;2023-07-22T17:01:47;9.43;;;3.55;;
19810;SDS011;10065;49.632;8.346;2023-07-22T17:04:15;8.73;;;3.50;;
19810;SDS011;10065;49.632;8.346;2023-07-22T17:06:43;7.03;;;4.18;;
19810;SDS011;10065;49.632;8.346;2023-07-22T17:09:11;9.70;;;4.28;;
19810;SDS011;10065;49.632;8.346;2023-07-22T17:11:40;5.70;;;3.72;;
19810;SDS011;10065;49.632;8.346;2023-07-22T17:14:16;18.50;;;4.65;;
19810;SDS011;10065;49.632;8.346;2023-07-22T17:16:44;15.20;;;3.72;;
19810;SDS011;10065;49.632;8.346;2023-07-22T17:19:14;11.60;;;3.75;;
19810;SDS011;10065;49.632;8.346;2023-07-22T17:21:45;10.70;;;3.30;;
19810;SDS011;10065;49.632;8.346;2023-07-22T17:24:13;7.70;;;3.78;;
19810;SDS011;10065;49.632;8.346;2023-07-22T17:26:42;8.82;;;3.55;;
19810;SDS011;10065;49.632;8.346;2023-07-22T17:29:12;7.60;;;3.10;;
19810;SDS011;10065;49.632;8.346;2023-07-22T17:31:43;7.40;;;3.05;;
19810;SDS011;10065;49.632;8.346;2023-07-22T17:34:14;6.20;;;3.00;;
19810;SDS011;10065;49.632;8.346;2023-07-22T17:36:42;5.43;;;3.03;;
19810;SDS011;10065;49.632;8.346;2023-07-22T17:39:10;11.80;;;5.22;;
19810;SDS011;10065;49.632;8.346;2023-07-22T17:41:42;15.23;;;6.90;;
19810;SDS011;10065;49.632;8.346;2023-07-22T17:44:12;13.68;;;4.63;;
19810;SDS011;10065;49.632;8.346;2023-07-22T17:46:40;6.95;;;2.50;;
19810;SDS011;10065;49.632;8.346;2023-07-22T17:49:17;6.03;;;2.95;;
19810;SDS011;10065;49.632;8.346;2023-07-22T17:51:45;6.25;;;3.28;;
19810;SDS011;10065;49.632;8.346;2023-07-22T17:54:13;7.25;;;2.67;;
19810;SDS011;10065;49.632;8.346;2023-07-22T17:56:44;5.80;;;2.63;;
19810;SDS011;10065;49.632;8.346;2023-07-22T17:59:14;7.82;;;2.80;;
19810;SDS011;10065;49.632;8.346;2023-07-22T18:01:46;9.38;;;3.10;;
19810;SDS011;10065;49.632;8.346;2023-07-22T18:04:14;6.00;;;2.67;;
19810;SDS011;10065;49.632;8.346;2023-07-22T18:06:44;5.78;;;3.13;;
19810;SDS011;10065;49.632;8.346;2023-07-22T18:09:14;6.90;;;3.22;;
19810;SDS011;10065;49.632;8.346;2023-07-22T18:11:42;4.07;;;2.75;;
19810;SDS011;10065;49.632;8.346;2023-07-22T18:14:15;5.55;;;2.53;;
19810;SDS011;10065;49.632;8.346;2023-07-22T18:16:44;7.95;;;4.40;;
19810;SDS011;10065;49.632;8.346;2023-07-22T18:19:12;5.70;;;3.00;;
19810;SDS011;10065;49.632;8.346;2023-07-22T18:21:41;6.10;;;3.30;;
19810;SDS011;10065;49.632;8.346;2023-07-22T18:24:09;7.47;;;3.58;;
19810;SDS011;10065;49.632;8.346;2023-07-22T18:26:38;5.38;;;3.10;;
19810;SDS011;10065;49.632;8.346;2023-07-22T18:32:04;6.65;;;3.80;;
19810;SDS011;10065;49.632;8.346;2023-07-22T18:34:32;7.53;;;3.50;;
19810;SDS011;10065;49.632;8.346;2023-07-22T18:37:01;7.13;;;3.33;;
19810;SDS011;10065;49.632;8.346;2023-07-22T18:39:29;9.40;;;3.78;;
19810;SDS011;10065;49.632;8.346;2023-07-22T18:42:01;9.25;;;5.43;;
19810;SDS011;10065;49.632;8.346;2023-07-22T18:44:40;13.32;;;6.70;;
19810;SDS011;10065;49.632;8.346;2023-07-22T18:47:10;10.73;;;5.40;;
19810;SDS011;10065;49.632;8.346;2023-07-22T18:49:42;7.50;;;3.63;;
19810;SDS011;10065;49.632;8.346;2023-07-22T18:52:11;5.38;;;3.00;;
19810;SDS011;10065;49.632;8.346;2023-07-22T18:54:52;8.27;;;3.35;;
19810;SDS011;10065;49.632;8.346;2023-07-22T18:57:20;7.13;;;3.30;;
19810;SDS011;10065;49.632;8.346;2023-07-22T18:59:53;7.47;;;3.92;;
19810;SDS011;10065;49.632;8.346;2023-07-22T19:02:23;10.48;;;4.57;;
19810;SDS011;10065;49.632;8.346;2023-07-22T19:04:51;7.63;;;4.65;;
19810;SDS011;10065;49.632;8.346;2023-07-22T19:30:24;9.68;;;4.90;;
19810;SDS011;10065;49.632;8.346;2023-07-22T19:32:53;9.95;;;6.40;;
19810;SDS011;10065;49.632;8.346;2023-07-22T19:35:27;12.40;;;3.35;;
19810;SDS011;10065;49.632;8.346;2023-07-22T19:37:55;6.40;;;3.55;;
19810;SDS011;10065;49.632;8.346;2023-07-22T19:40:23;8.70;;;3.03;;
19810;SDS011;10065;49.632;8.346;2023-07-22T19:42:56;5.97;;;2.92;;
19810;SDS011;10065;49.632;8.346;2023-07-22T19:45:27;7.72;;;3.17;;
19810;SDS011;10065;49.632;8.346;2023-07-22T19:48:01;9.75;;;3.40;;
19810;SDS011;10065;49.632;8.346;2023-07-22T19:50:32;8.82;;;3.25;;
19810;SDS011;10065;49.632;8.346;2023-07-22T19:53:02;8.13;;;3.42;;
19810;SDS011;10065;49.632;8.346;2023-07-22T19:55:30;8.65;;;3.10;;
19810;SDS011;10065;49.632;8.346;2023-07-22T19:57:58;8.00;;;3.35;;
19810;SDS011;10065;49.632;8.346;2023-07-22T20:00:27;5.10;;;2.90;;
19810;SDS011;10065;49.632;8.346;2023-07-22T20:02:55;6.47;;;3.13;;
19810;SDS011;10065;49.632;8.346;2023-07-22T20:05:24;6.32;;;3.03;;
19810;SDS011;10065;49.632;8.346;2023-07-22T20:07:52;5.47;;;2.95;;
19810;SDS011;10065;49.632;8.346;2023-07-22T20:10:23;4.68;;;3.25;;
19810;SDS011;10065;49.632;8.346;2023-07-22T20:12:51;5.28;;;2.88;;
19810;SDS011;10065;49.632;8.346;2023-07-22T20:15:19;6.80;;;3.00;;
19810;SDS011;10065;49.632;8.346;2023-07-22T20:17:49;9.48;;;3.20;;
19810;SDS011;10065;49.632;8.346;2023-07-22T20:20:17;5.03;;;2.97;;
19810;SDS011;10065;49.632;8.346;2023-07-22T20:22:45;5.38;;;3.05;;
19810;SDS011;10065;49.632;8.346;2023-07-22T20:25:16;7.05;;;2.85;;
19810;SDS011;10065;49.632;8.346;2023-07-22T20:27:44;5.80;;;3.40;;
19810;SDS011;10065;49.632;8.346;2023-07-22T20:30:12;14.95;;;3.53;;
19810;SDS011;10065;49.632;8.346;2023-07-22T20:32:51;10.32;;;3.13;;
19810;SDS011;10065;49.632;8.346;2023-07-22T20:35:19;8.52;;;2.72;;
19810;SDS011;10065;49.632;8.346;2023-07-22T20:37:48;9.77;;;3.03;;
19810;SDS011;10065;49.632;8.346;2023-07-22T20:40:16;5.70;;;2.95;;
19810;SDS011;10065;49.632;8.346;2023-07-22T20:42:47;6.88;;;2.85;;
19810;SDS011;10065;49.632;8.346;2023-07-22T20:45:15;8.45;;;2.92;;
19810;SDS011;10065;49.632;8.346;2023-07-22T20:47:53;8.43;;;2.90;;
19810;SDS011;10065;49.632;8.346;2023-07-22T20:50:22;7.90;;;2.60;;
19810;SDS011;10065;49.632;8.346;2023-07-22T20:52:50;5.72;;;2.95;;
19810;SDS011;10065;49.632;8.346;2023-07-22T20:55:18;7.72;;;2.80;;
19810;SDS011;10065;49.632;8.346;2023-07-22T20:57:46;7.28;;;2.97;;
19810;SDS011;10065;49.632;8.346;2023-07-22T21:00:15;6.07;;;3.28;;
19810;SDS011;10065;49.632;8.346;2023-07-22T21:02:43;5.60;;;3.10;;
19810;SDS011;10065;49.632;8.346;2023-07-22T21:05:13;8.10;;;3.00;;
19810;SDS011;10065;49.632;8.346;2023-07-22T21:07:41;10.15;;;3.03;;
19810;SDS011;10065;49.632;8.346;2023-07-22T21:10:09;9.85;;;3.50;;
19810;SDS011;10065;49.632;8.346;2023-07-22T21:12:38;7.35;;;3.25;;
19810;SDS011;10065;49.632;8.346;2023-07-22T21:15:09;13.82;;;3.10;;
19810;SDS011;10065;49.632;8.346;2023-07-22T21:17:37;5.03;;;2.70;;
19810;SDS011;10065;49.632;8.346;2023-07-22T21:20:12;6.18;;;2.97;;
19810;SDS011;10065;49.632;8.346;2023-07-22T21:22:40;6.05;;;2.88;;
19810;SDS011;10065;49.632;8.346;2023-07-22T21:25:11;7.35;;;3.80;;
19810;SDS011;10065;49.632;8.346;2023-07-22T21:27:44;6.93;;;3.22;;
19810;SDS011;10065;49.632;8.346;2023-07-22T21:30:14;6.88;;;3.25;;
19810;SDS011;10065;49.632;8.346;2023-07-22T21:32:42;8.00;;;3.15;;
19810;SDS011;10065;49.632;8.346;2023-07-22T21:35:13;10.05;;;3.63;;
19810;SDS011;10065;49.632;8.346;2023-07-22T21:37:42;6.80;;;3.03;;
19810;SDS011;10065;49.632;8.346;2023-07-22T21:40:10;5.60;;;3.70;;
19810;SDS011;10065;49.632;8.346;2023-07-22T21:42:39;5.30;;;3.13;;
19810;SDS011;10065;49.632;8.346;2023-07-22T21:45:07;7.03;;;3.28;;